createdAt,value
2022-12-22T00:00:07.807Z,2.24
2022-12-22T00:02:58.850Z,2.22
2022-12-22T00:05:44.668Z,2.30
2022-12-22T00:08:30.404Z,2.29
2022-12-22T00:11:17.265Z,2.41
2022-12-22T00:14:04.954Z,2.36
2022-12-22T00:16:55.395Z,2.43
2022-12-22T00:19:41.627Z,2.43
2022-12-22T00:22:35.437Z,2.45
2022-12-22T00:25:21.319Z,2.31
2022-12-22T00:28:06.844Z,2.38
2022-12-22T00:30:52.947Z,2.37
2022-12-22T00:33:39.716Z,2.41
2022-12-22T00:36:26.862Z,2.42
2022-12-22T00:39:12.644Z,2.34
2022-12-22T00:41:58.043Z,2.33
2022-12-22T00:44:43.709Z,2.28
2022-12-22T00:47:46.668Z,2.29
2022-12-22T00:50:33.925Z,2.42
2022-12-22T00:53:20.344Z,2.46
2022-12-22T00:56:06.267Z,2.50
2022-12-22T00:58:53.447Z,2.54
2022-12-22T01:01:39.204Z,2.49
2022-12-22T01:04:24.929Z,2.42
2022-12-22T01:07:10.672Z,2.50
2022-12-22T01:09:56.455Z,2.38
2022-12-22T01:12:45.641Z,2.43
2022-12-22T01:15:37.468Z,2.48
2022-12-22T01:18:24.526Z,2.58
2022-12-22T01:21:11.118Z,2.58
2022-12-22T01:23:57.685Z,2.53
2022-12-22T01:26:43.624Z,2.50
2022-12-22T01:29:29.400Z,2.45
2022-12-22T01:32:15.401Z,2.40
2022-12-22T01:35:00.976Z,2.23
2022-12-22T01:37:46.589Z,2.43
2022-12-22T01:40:35.968Z,2.52
2022-12-22T01:43:21.340Z,2.47
2022-12-22T01:46:07.080Z,2.45
2022-12-22T01:48:52.766Z,2.50
2022-12-22T01:51:46.010Z,2.46
2022-12-22T01:54:33.231Z,2.46
2022-12-22T01:57:19.927Z,2.38
2022-12-22T02:00:05.755Z,2.45
2022-12-22T02:02:58.033Z,2.42
2022-12-22T02:05:43.555Z,2.46
2022-12-22T02:09:05.526Z,2.49
2022-12-22T02:12:16.833Z,2.46
2022-12-22T02:15:20.329Z,2.37
2022-12-22T02:18:13.177Z,2.39
2022-12-22T02:21:09.404Z,2.45
2022-12-22T02:24:19.013Z,2.53
2022-12-22T02:27:08.643Z,2.52
2022-12-22T02:30:13.645Z,2.66
2022-12-22T02:33:09.233Z,2.57
2022-12-22T02:36:10.646Z,2.59
2022-12-22T02:39:11.985Z,2.62
2022-12-22T02:42:10.846Z,2.76
2022-12-22T02:45:01.659Z,2.62
2022-12-22T02:48:05.607Z,2.71
2022-12-22T02:51:14.217Z,2.72
2022-12-22T02:54:00.065Z,2.78
2022-12-22T02:56:45.580Z,2.76
2022-12-22T02:59:31.203Z,2.80
2022-12-22T03:02:17.003Z,2.87
2022-12-22T03:05:02.613Z,2.81
2022-12-22T03:07:48.745Z,2.81
2022-12-22T03:10:34.579Z,2.85
2022-12-22T03:13:20.125Z,2.88
2022-12-22T03:16:05.931Z,2.80
2022-12-22T03:18:51.714Z,2.85
2022-12-22T03:21:37.327Z,2.91
2022-12-22T03:24:23.055Z,2.93
2022-12-22T03:26:50.139Z,2.90
2022-12-22T03:29:17.195Z,2.92
2022-12-22T03:31:44.258Z,2.93
2022-12-22T03:34:11.374Z,2.98
2022-12-22T03:36:38.457Z,2.96
2022-12-22T03:39:05.619Z,3.00
2022-12-22T03:41:51.260Z,2.99
2022-12-22T03:44:36.810Z,3.02
2022-12-22T03:47:03.943Z,3.06
2022-12-22T03:49:31.149Z,3.11
2022-12-22T03:51:58.337Z,3.15
2022-12-22T03:54:26.350Z,3.15
2022-12-22T03:56:54.168Z,3.15
2022-12-22T03:59:21.303Z,3.17
2022-12-22T04:01:52.109Z,3.11
2022-12-22T04:04:22.670Z,3.17
2022-12-22T04:06:50.084Z,3.12
2022-12-22T04:09:17.223Z,3.01
2022-12-22T04:12:02.599Z,3.08
2022-12-22T04:14:33.778Z,3.07
2022-12-22T04:17:02.664Z,3.14
2022-12-22T04:19:30.075Z,3.13
2022-12-22T04:21:57.445Z,3.14
2022-12-22T04:24:24.828Z,3.16
2022-12-22T04:26:52.497Z,3.20
2022-12-22T04:29:19.548Z,3.24
2022-12-22T04:31:46.638Z,3.24
2022-12-22T04:34:13.875Z,3.23
2022-12-22T04:36:40.978Z,3.28
2022-12-22T04:39:07.965Z,3.29
2022-12-22T04:41:35.107Z,3.16
2022-12-22T04:44:02.250Z,3.21
2022-12-22T04:46:29.464Z,3.21
2022-12-22T04:49:00.300Z,3.15
2022-12-22T04:51:28.670Z,3.12
2022-12-22T04:53:55.921Z,3.20
2022-12-22T04:56:22.920Z,3.24
2022-12-22T04:58:49.982Z,3.19
2022-12-22T05:01:18.925Z,3.19
2022-12-22T05:03:46.953Z,3.22
2022-12-22T05:06:15.035Z,3.13
2022-12-22T05:08:42.207Z,3.22
2022-12-22T05:11:09.753Z,3.17
2022-12-22T05:13:36.920Z,3.08
2022-12-22T05:16:15.315Z,3.10
2022-12-22T05:18:44.334Z,3.16
2022-12-22T05:21:22.562Z,3.18
2022-12-22T05:23:50.862Z,3.12
2022-12-22T05:26:19.496Z,3.12
2022-12-22T05:28:48.175Z,3.11
2022-12-22T05:31:23.143Z,3.16
2022-12-22T05:33:50.855Z,3.14
2022-12-22T05:36:18.477Z,3.10
2022-12-22T05:38:45.733Z,3.04
2022-12-22T05:41:12.822Z,2.91
2022-12-22T05:43:40.090Z,2.93
2022-12-22T05:46:10.526Z,2.96
2022-12-22T05:48:39.842Z,3.00
2022-12-22T05:51:11.118Z,2.98
2022-12-22T05:53:38.480Z,3.05
2022-12-22T05:56:06.901Z,3.02
2022-12-22T05:58:34.955Z,3.08
2022-12-22T06:01:02.121Z,3.05
2022-12-22T06:03:30.683Z,3.06
2022-12-22T06:05:58.641Z,3.07
2022-12-22T06:08:26.873Z,3.07
2022-12-22T06:10:55.503Z,3.10
2022-12-22T06:13:23.398Z,3.14
2022-12-22T06:15:50.663Z,3.20
2022-12-22T06:18:18.267Z,3.15
2022-12-22T06:20:48.477Z,3.15
2022-12-22T06:23:15.960Z,3.19
2022-12-22T06:25:43.018Z,3.17
2022-12-22T06:28:10.089Z,3.11
2022-12-22T06:30:37.106Z,3.17
2022-12-22T06:33:04.097Z,3.19
2022-12-22T06:35:31.093Z,3.20
2022-12-22T06:37:58.138Z,3.15
2022-12-22T06:40:25.145Z,3.11
2022-12-22T06:43:11.009Z,3.09
2022-12-22T06:45:40.614Z,3.10
2022-12-22T06:48:10.067Z,3.11
2022-12-22T06:50:37.165Z,3.13
2022-12-22T06:53:04.731Z,3.03
2022-12-22T06:55:32.068Z,3.11
2022-12-22T06:57:59.055Z,3.14
2022-12-22T07:00:26.168Z,3.27
2022-12-22T07:02:53.429Z,3.32
2022-12-22T07:05:20.715Z,3.31
2022-12-22T07:07:47.766Z,3.41
2022-12-22T07:10:14.874Z,3.43
2022-12-22T07:12:42.173Z,3.43
2022-12-22T07:15:10.595Z,3.42
2022-12-22T07:17:37.630Z,3.37
2022-12-22T07:20:05.070Z,3.48
2022-12-22T07:22:32.056Z,3.46
2022-12-22T07:24:59.071Z,3.49
2022-12-22T07:27:26.071Z,3.51
2022-12-22T07:29:53.058Z,3.58
2022-12-22T07:32:20.058Z,3.61
2022-12-22T07:34:47.030Z,3.65
2022-12-22T07:37:14.245Z,3.62
2022-12-22T07:39:41.241Z,3.67
2022-12-22T07:42:30.692Z,3.65
2022-12-22T07:44:57.841Z,3.61
2022-12-22T07:47:28.589Z,3.62
2022-12-22T07:50:32.735Z,3.64
2022-12-22T07:53:02.107Z,3.70
2022-12-22T07:55:31.702Z,3.74
2022-12-22T07:57:59.072Z,3.78
2022-12-22T08:00:26.121Z,3.79
2022-12-22T08:02:56.022Z,3.76
2022-12-22T08:05:25.377Z,3.73
2022-12-22T08:07:53.181Z,3.76
2022-12-22T08:10:20.765Z,3.79
2022-12-22T08:12:47.865Z,3.75
2022-12-22T08:15:15.004Z,3.71
2022-12-22T08:17:42.047Z,3.69
2022-12-22T08:20:09.534Z,3.70
2022-12-22T08:22:36.599Z,3.71
2022-12-22T08:25:03.875Z,3.78
2022-12-22T08:27:39.966Z,3.84
2022-12-22T10:46:57.442Z,3.86
2022-12-22T10:52:27.348Z,3.84
2022-12-22T10:55:17.028Z,3.79
2022-12-22T10:57:45.031Z,3.73
2022-12-22T11:00:23.916Z,3.77
2022-12-22T11:02:53.788Z,3.81
2022-12-22T11:05:24.844Z,3.74
2022-12-22T11:07:52.760Z,3.73
2022-12-22T11:10:40.316Z,3.69
2022-12-22T11:13:25.319Z,3.82
2022-12-22T11:16:03.077Z,3.83
2022-12-22T11:18:32.868Z,3.83
2022-12-22T11:21:24.244Z,3.86
2022-12-22T11:24:24.413Z,3.77
2022-12-22T11:26:56.186Z,3.80
2022-12-22T11:30:04.254Z,3.84
2022-12-22T11:33:02.668Z,3.87
2022-12-22T11:35:56.626Z,3.81
2022-12-22T11:38:37.612Z,3.86
2022-12-22T11:41:19.766Z,3.81
2022-12-22T11:44:02.230Z,3.87
2022-12-22T11:46:53.898Z,3.89
2022-12-22T11:49:30.171Z,3.83
2022-12-22T11:51:57.174Z,3.73
2022-12-22T11:54:56.391Z,3.73
2022-12-22T11:57:34.033Z,3.78
2022-12-22T12:00:11.887Z,3.74
2022-12-22T12:03:15.695Z,3.81
2022-12-22T12:05:59.928Z,3.72
2022-12-22T12:08:46.225Z,3.68
2022-12-22T12:11:31.654Z,3.74
2022-12-22T12:14:35.954Z,3.73
2022-12-22T12:17:18.177Z,3.60
2022-12-22T12:20:11.235Z,3.70
2022-12-22T12:22:56.858Z,3.68
2022-12-22T12:26:05.538Z,3.67
2022-12-22T12:28:47.858Z,3.65
2022-12-22T12:31:24.387Z,3.67
2022-12-22T12:34:01.103Z,3.62
2022-12-22T12:36:38.665Z,3.59
2022-12-22T12:39:36.847Z,3.56
2022-12-22T12:42:26.694Z,3.60
2022-12-22T12:44:54.517Z,3.61
2022-12-22T12:47:23.504Z,3.61
2022-12-22T12:49:58.350Z,3.66
2022-12-22T12:52:41.225Z,3.70
2022-12-22T12:55:52.311Z,3.75
2022-12-22T12:58:50.121Z,3.54
2022-12-22T13:01:20.264Z,3.61
2022-12-22T13:04:04.728Z,3.62
2022-12-22T13:06:51.212Z,3.66
2022-12-22T13:09:49.372Z,3.66
2022-12-22T13:12:48.868Z,3.73
2022-12-22T13:15:37.711Z,3.66
2022-12-22T13:18:23.894Z,3.74
2022-12-22T13:21:50.248Z,3.66
2022-12-22T13:26:47.468Z,3.62
2022-12-22T13:29:41.327Z,3.60
2022-12-22T13:32:29.867Z,3.64
2022-12-22T13:35:34.818Z,3.66
2022-12-22T13:38:05.088Z,3.53
2022-12-22T13:40:41.528Z,3.56
2022-12-22T13:43:18.090Z,3.56
2022-12-22T13:45:49.054Z,3.53
2022-12-22T13:48:35.972Z,3.51
2022-12-22T13:51:20.284Z,3.60
2022-12-22T13:54:38.436Z,3.54
2022-12-22T13:57:21.215Z,3.48
2022-12-22T13:59:51.749Z,3.51
2022-12-22T14:02:21.990Z,3.50
2022-12-22T14:05:09.520Z,3.57
2022-12-22T14:07:37.126Z,3.58
2022-12-22T14:10:04.956Z,3.66
2022-12-22T14:12:39.973Z,3.67
2022-12-22T14:15:15.434Z,3.71
2022-12-22T14:17:49.980Z,3.67
2022-12-22T14:20:21.871Z,3.65
2022-12-22T14:23:00.836Z,3.69
2022-12-22T14:25:38.296Z,3.67
2022-12-22T14:28:25.501Z,3.66
2022-12-22T14:31:00.787Z,3.70
2022-12-22T14:33:33.204Z,3.75
2022-12-22T14:36:18.465Z,3.75
2022-12-22T14:38:50.358Z,3.76
2022-12-22T14:41:41.815Z,3.79
2022-12-22T14:44:21.097Z,3.78
2022-12-22T14:47:12.453Z,3.76
2022-12-22T14:49:48.605Z,3.80
2022-12-22T14:52:23.310Z,3.81
2022-12-22T14:54:52.540Z,3.79
2022-12-22T14:57:42.276Z,3.79
2022-12-22T15:00:24.604Z,3.83
2022-12-22T15:03:01.121Z,3.86
2022-12-22T15:05:35.693Z,3.87
2022-12-22T15:08:05.836Z,3.82
2022-12-22T15:10:42.952Z,3.85
2022-12-22T15:13:17.572Z,3.88
2022-12-22T15:15:44.669Z,3.75
2022-12-22T15:18:16.760Z,3.80
2022-12-22T15:20:44.020Z,3.83
2022-12-22T15:23:17.211Z,3.75
2022-12-22T15:25:45.756Z,3.72
2022-12-22T15:28:13.308Z,3.73
2022-12-22T15:30:41.052Z,3.78
2022-12-22T15:33:14.467Z,3.70
2022-12-22T15:35:42.564Z,3.66
2022-12-22T15:38:19.093Z,3.63
2022-12-22T15:40:46.392Z,3.52
2022-12-22T15:43:53.989Z,3.56
2022-12-22T15:46:04.175Z,3.67
2022-12-22T15:48:34.378Z,3.74
2022-12-22T15:51:03.681Z,3.73
2022-12-22T15:53:33.068Z,3.77
2022-12-22T15:56:00.737Z,3.81
2022-12-22T15:58:33.192Z,3.79
2022-12-22T16:01:00.418Z,3.78
2022-12-22T16:03:27.604Z,3.73
2022-12-22T16:05:54.835Z,3.69
2022-12-22T16:08:37.068Z,3.72
2022-12-22T16:11:07.974Z,3.72
2022-12-22T16:13:37.893Z,3.75
2022-12-22T16:16:05.891Z,3.76
2022-12-22T16:18:32.990Z,3.77
2022-12-22T16:21:08.531Z,3.80
2022-12-22T16:23:37.078Z,3.81
2022-12-22T16:26:05.339Z,3.83
2022-12-22T16:28:33.419Z,3.87
2022-12-22T16:31:01.385Z,3.88
2022-12-22T16:33:29.145Z,3.90
2022-12-22T16:35:56.286Z,3.87
2022-12-22T16:38:23.562Z,3.86
2022-12-22T16:40:53.315Z,3.82
2022-12-22T16:46:22.425Z,3.90
2022-12-22T16:49:02.982Z,3.97
2022-12-22T16:51:34.294Z,4.01
2022-12-22T16:54:02.606Z,4.03
2022-12-22T16:56:31.459Z,4.08
2022-12-22T16:58:59.250Z,4.12
2022-12-22T17:01:50.672Z,4.08
2022-12-22T17:04:23.852Z,4.14
2022-12-22T17:06:53.059Z,4.07
2022-12-22T17:09:34.042Z,3.97
2022-12-22T17:12:01.535Z,4.02
2022-12-22T17:14:39.516Z,4.03
2022-12-22T17:17:06.963Z,4.11
2022-12-22T17:19:33.970Z,4.14
2022-12-22T17:22:01.386Z,4.12
2022-12-22T17:24:29.029Z,4.19
2022-12-22T17:27:03.841Z,4.17
2022-12-22T17:29:31.497Z,4.19
2022-12-22T17:31:58.466Z,4.23
2022-12-22T17:34:26.867Z,4.24
2022-12-22T17:36:56.871Z,4.26
2022-12-22T17:39:24.198Z,4.26
2022-12-22T17:41:57.266Z,4.30
2022-12-22T17:44:26.935Z,4.24
2022-12-22T17:46:54.347Z,4.28
2022-12-22T17:49:22.941Z,4.23
2022-12-22T17:51:50.517Z,4.21
2022-12-22T17:54:27.777Z,4.18
2022-12-22T17:57:03.853Z,4.18
2022-12-22T17:59:31.284Z,4.15
2022-12-22T18:02:00.362Z,4.09
2022-12-22T18:04:27.542Z,4.09
2022-12-22T18:06:56.134Z,4.04
2022-12-22T18:09:26.726Z,3.99
2022-12-22T18:11:54.229Z,4.05
2022-12-22T18:14:22.308Z,4.05
2022-12-22T18:16:49.621Z,4.06
2022-12-22T18:19:16.800Z,4.14
2022-12-22T18:21:44.388Z,4.12
2022-12-22T18:24:20.769Z,4.01
2022-12-22T18:26:47.925Z,4.05
2022-12-22T18:29:16.610Z,4.08
2022-12-22T18:31:44.533Z,4.04
2022-12-22T18:34:12.701Z,3.98
2022-12-22T18:36:42.647Z,4.00
2022-12-22T18:39:19.310Z,4.02
2022-12-22T18:41:47.102Z,4.07
2022-12-22T18:44:18.476Z,4.04
2022-12-22T18:46:46.317Z,4.00
2022-12-22T18:49:13.410Z,4.05
2022-12-22T18:51:42.071Z,4.04
2022-12-22T18:54:23.313Z,4.06
2022-12-22T18:56:51.648Z,4.12
2022-12-22T18:59:24.290Z,4.18
2022-12-22T19:01:52.578Z,4.25
2022-12-22T19:04:19.869Z,4.21
2022-12-22T19:06:47.073Z,4.25
2022-12-22T19:09:15.451Z,4.16
2022-12-22T19:11:43.255Z,4.18
2022-12-22T19:14:19.990Z,4.08
2022-12-22T19:16:48.182Z,4.03
2022-12-22T19:19:18.375Z,4.04
2022-12-22T19:21:46.588Z,4.05
2022-12-22T19:24:13.710Z,3.91
2022-12-22T19:26:41.840Z,3.90
2022-12-22T19:29:14.297Z,3.93
2022-12-22T19:31:43.431Z,3.99
2022-12-22T19:34:17.034Z,4.02
2022-12-22T19:36:44.224Z,3.99
2022-12-22T19:39:11.632Z,3.96
2022-12-22T19:41:51.594Z,3.86
2022-12-22T19:44:30.788Z,3.82
2022-12-22T19:46:59.914Z,3.83
2022-12-22T19:49:28.512Z,3.80
2022-12-22T19:51:57.056Z,3.80
2022-12-22T19:54:25.429Z,3.78
2022-12-22T19:56:55.274Z,3.85
2022-12-22T19:59:38.177Z,3.89
2022-12-22T20:02:22.050Z,3.89
2022-12-22T20:04:50.404Z,3.74
2022-12-22T20:07:19.608Z,3.78
2022-12-22T20:09:46.949Z,3.87
2022-12-22T20:12:38.014Z,3.84
2022-12-22T20:15:14.396Z,3.75
2022-12-22T20:17:41.421Z,3.78
2022-12-22T20:20:20.735Z,3.78
2022-12-22T20:22:51.537Z,3.80
2022-12-22T20:25:24.017Z,3.83
2022-12-22T20:28:10.017Z,3.83
2022-12-22T20:30:37.070Z,3.74
2022-12-22T20:33:04.134Z,3.71
2022-12-22T20:35:31.246Z,3.80
2022-12-22T20:37:59.038Z,3.74
2022-12-22T20:40:31.517Z,3.73
2022-12-22T20:42:59.076Z,3.81
2022-12-22T20:45:29.680Z,3.81
2022-12-22T20:47:59.410Z,3.86
2022-12-22T20:50:29.472Z,3.87
2022-12-22T20:52:57.153Z,3.88
2022-12-22T20:55:27.511Z,3.82
2022-12-22T20:57:54.849Z,3.77
2022-12-22T21:00:23.983Z,3.72
2022-12-22T21:02:51.053Z,3.62
2022-12-22T21:05:19.173Z,3.65
2022-12-22T21:07:48.265Z,3.57
2022-12-22T21:10:20.510Z,3.59
2022-12-22T21:12:47.750Z,3.51
2022-12-22T21:15:20.664Z,3.59
2022-12-22T21:17:52.809Z,3.55
2022-12-22T21:20:26.315Z,3.56
2022-12-22T21:22:53.456Z,3.57
2022-12-22T21:25:20.502Z,3.66
2022-12-22T21:27:50.435Z,3.63
2022-12-22T21:30:23.759Z,3.64
2022-12-22T21:32:52.037Z,3.72
2022-12-22T21:35:23.294Z,3.72
2022-12-22T21:37:52.317Z,3.82
2022-12-22T21:40:23.033Z,3.82
2022-12-22T21:42:51.334Z,3.88
2022-12-22T21:45:24.645Z,3.85
2022-12-22T21:47:51.731Z,3.86
2022-12-22T21:50:23.547Z,3.79
2022-12-22T21:52:51.710Z,3.78
2022-12-22T21:55:22.004Z,3.70
2022-12-22T21:57:49.038Z,3.69
2022-12-22T22:00:18.530Z,3.66
2022-12-22T22:02:46.612Z,3.60
2022-12-22T22:05:28.820Z,3.68
2022-12-22T22:07:57.823Z,3.60
2022-12-22T22:10:29.745Z,3.56
2022-12-22T22:12:57.223Z,3.57
2022-12-22T22:15:27.199Z,3.66
2022-12-22T22:17:54.989Z,3.50
2022-12-22T22:20:25.694Z,3.50
2022-12-22T22:22:53.962Z,3.46
2022-12-22T22:25:22.116Z,3.46
2022-12-22T22:27:49.988Z,3.42
2022-12-22T22:30:20.744Z,3.50
2022-12-22T22:32:49.052Z,3.52
2022-12-22T22:35:16.625Z,3.54
2022-12-22T22:37:45.873Z,3.49
2022-12-22T22:40:15.905Z,3.53
2022-12-22T22:42:42.880Z,3.60
2022-12-22T22:45:13.098Z,3.57
2022-12-22T22:47:40.338Z,3.60
2022-12-22T22:50:09.059Z,3.63
2022-12-22T22:52:36.781Z,3.66
2022-12-22T22:55:04.247Z,3.65
2022-12-22T22:57:31.313Z,3.64
2022-12-22T22:59:58.425Z,3.68
2022-12-22T23:02:25.594Z,3.70
2022-12-22T23:04:52.701Z,3.70
2022-12-22T23:07:19.792Z,3.59
2022-12-22T23:09:46.855Z,3.54
2022-12-22T23:12:14.046Z,3.45
2022-12-22T23:14:41.139Z,3.58
2022-12-22T23:17:08.201Z,3.65
2022-12-22T23:19:35.231Z,3.77
2022-12-22T23:22:02.227Z,3.78
2022-12-22T23:24:29.253Z,3.78
2022-12-22T23:26:56.234Z,3.72
2022-12-22T23:29:23.548Z,3.80
2022-12-22T23:31:50.676Z,3.83
2022-12-22T23:34:17.876Z,3.82
2022-12-22T23:36:44.833Z,3.85
2022-12-22T23:39:11.876Z,3.49
2022-12-22T23:41:38.927Z,3.63
2022-12-22T23:44:06.167Z,3.72
2022-12-22T23:46:33.192Z,3.81
2022-12-22T23:49:00.268Z,3.73
2022-12-22T23:51:29.064Z,3.77
2022-12-22T23:53:58.180Z,3.72
2022-12-22T23:56:25.186Z,3.81
2022-12-22T23:58:54.777Z,3.82
